MUHG/HOG METAR and TAF weather

Enter ICAO airport designator
Station Type Date Time Source
MUHG METAR 2021/08/05 03:50 UTC NOAA

MUHG 050350Z VRB02KT 9000 FEW045 BKN210 23/21 Q1019


Station Type Date Time Source
MUHG Decoded METAR 2021/08/05 03:50 UTC NOAA

Holguin Civ / Mil , Cuba (MUHG) 20-47N 076-19W
Aug 04, 2021 - 11:50 PM EDT / 2021.08.05 0350 UTC
Wind: Variable at 2 MPH (2 KT):0
Visibility: 5 mile(s):0
Sky conditions: mostly cloudy
Temperature: 73 F (23 C)
Dew Point: 69 F (21 C)
Relative Humidity: 88%
Pressure (altimeter): 30.09 in. Hg (1019 hPa)
ob: MUHG 050350Z VRB02KT 9000 FEW045 BKN210 23/21 Q1019
cycle: 4

Station Type Date Time Source
MUHG TAF 2021/08/04 18:03 UTC NOAA

TAF TAF MUHG 041700Z 0418/0518 08008KT 9000 SCT020
TEMPO 0418/0424 VRB10KT 3000 TSRA SCT018CB BKN020
BECMG 0501/0503 VRB03KT
BECMG 0516/0518 07008KT

Example: see airport list